Sinclair, Illinois
Current Conditions -  °F | °C
As of 4:35 PM on Thursday 23 Oct 2014 (Local Time) from KIJX Reporting Station
Broken Clouds Broken Clouds  
Wind Chill: 64°   Ceiling: 7500
Heat Index: 64°   Visibility: 10mi
Dew Point: 46°   Wind: 6mph
Humidity: 53%   Direction: 170°S
Pressure: 30.07"   Gusts: NA
Location:  39.7413°N, 90.2138°W
Report Text: KIJX 232135Z AUTO 17005KT 10SM SCT060 BKN075 BKN085 18/08 A3007 RMK AO2 T01760080
Loading
Personal Weather Stations






























Interactive Weather Map
Tropical Storm Tracking
New forecast layout! Learn more

10-Day Weather Forecast

Advertisements
Track Severe Weather on mobile